Strona główna
METAR-TAF:

METAR-TAF

Lotnisko :

Katowice, Polska

Port lotniczy Katowice-Pyrzowice

Szerokość geograficzna: 50-28-27N, Długość geograficzna: 019-04-48E, wysokość: 284 m

Aktualna obserwacja pogody

Raport powstał 33 minut temu, godzina 20:00 UTC
Wiatr 3 kt od wschodnio-północny wschód
Temperatura 4°C
Wilgotność 81%
Ciśnienie 1019 hPa
Widzialność 10 km lub więcej
Brak chmur poniżej 1500 m i brak chmur cumulonimbus

METAR: EPKT 302000Z 06003KT CAVOK 04/01 Q1019

czas: 22:33 (20:33 UTC)

Prognoza

Raport powstał 3 godziny i 3 minut temu, godzina 17:30 UTC
Prognoza ważna od 30 godzina 18 UTC do 01 godzina 18 UTC
Wiatr 10 kt od wschód
Widzialność 10 km lub więcej
Brak chmur poniżej 1500 m i brak chmur cumulonimbus
Stopniowe zmiany
od 01 godzina 04 UTC do 01 godzina 07 UTC
Wiatr 20 kt od wschód
Przejściowo
od 01 godzina 07 UTC do 01 godzina 18 UTC
Wiatr 20 kt od wschód w porywach dochodzący do 30 kt

TAF: EPKT 301730Z 3018/0118 09010KT CAVOK BECMG 0104/0107 09020KT TEMPO 0107/0118 09020G30KT

Obserwacja i prognoza pogody dla ponad 4000 lotnisk (raport METAR i TAF).

Dostępne stacje oznaczono żółtymi i czerwonymi punktami na mapie.

Najedź kursorem aby zobaczyć nazwę stacji.

Kliknij aby zobaczyć obserwacje i prognozy pogody.

Aby zmienić mapę: kliknij na zielony przycisk z czarnym krzyżykiem, aby powiększyć; na zielony przycisk z myślnikiem, aby pomniejszyć; na zielone strzałki, aby przejść do map sąsiednich.


METAR-TAF: